Time;durP1;ratioP1;P1;durP2;ratioP2;P2;SDS_P1;SDS_P2;PMS_P1;PMS_P2;Temp;Humidity;BMP_temperature;BMP_pressure;BME280_temperature;BME280_humidity;BME280_pressure;Samples;Min_cycle;Max_cycle;Signal;HPM_P1;HPM_P2
2022/11/09 00:00:42;;;;;;;7.63;2.33;;;;;;;;;;5085159;28;20023;-76
2022/11/09 00:03:08;;;;;;;4.95;2.10;;;;;;;;;;5087743;28;20488;-77
2022/11/09 00:05:34;;;;;;;7.50;2.20;;;;;;;;;;5088102;28;20029;-78
2022/11/09 00:08:00;;;;;;;7.22;2.13;;;;;;;;;;5080345;28;20032;-78
2022/11/09 00:10:27;;;;;;;9.25;2.58;;;;;;;;;;5082799;28;20035;-78
2022/11/09 00:12:52;;;;;;;8.30;2.28;;;;;;;;;;5082380;28;20035;-77
2022/11/09 00:15:18;;;;;;;8.38;2.92;;;;;;;;;;5074347;28;20498;-77
2022/11/09 00:17:44;;;;;;;8.50;2.00;;;;;;;;;;5075114;28;20082;-76
2022/11/09 00:20:11;;;;;;;10.32;2.70;;;;;;;;;;5075463;28;20091;-78
2022/11/09 00:22:37;;;;;;;7.15;2.33;;;;;;;;;;5075938;28;20069;-77
2022/11/09 00:25:03;;;;;;;5.35;2.28;;;;;;;;;;5078876;28;20052;-76
2022/11/09 00:27:29;;;;;;;5.43;1.88;;;;;;;;;;5080563;28;20029;-79
2022/11/09 00:29:55;;;;;;;6.15;2.22;;;;;;;;;;5092126;28;20378;-77
2022/11/09 00:32:21;;;;;;;12.80;2.35;;;;;;;;;;5092965;28;20040;-78
2022/11/09 00:34:47;;;;;;;8.75;2.35;;;;;;;;;;5093986;28;20028;-77
2022/11/09 00:37:13;;;;;;;6.30;2.28;;;;;;;;;;5097328;28;20020;-77
2022/11/09 00:39:39;;;;;;;7.18;2.35;;;;;;;;;;5092593;28;20051;-76
2022/11/09 00:42:06;;;;;;;6.68;2.05;;;;;;;;;;5080746;28;20394;-77
2022/11/09 00:44:32;;;;;;;11.73;2.70;;;;;;;;;;5078457;28;20120;-77
2022/11/09 00:46:58;;;;;;;11.52;2.50;;;;;;;;;;5079521;28;20571;-77
2022/11/09 00:49:24;;;;;;;8.90;2.55;;;;;;;;;;5079302;28;20031;-79
2022/11/09 00:51:50;;;;;;;10.43;2.90;;;;;;;;;;5077584;28;20028;-77
2022/11/09 00:54:16;;;;;;;6.78;2.13;;;;;;;;;;5076710;28;20025;-76
2022/11/09 00:56:42;;;;;;;7.22;2.40;;;;;;;;;;5076509;28;20031;-76
2022/11/09 00:59:09;;;;;;;8.13;2.53;;;;;;;;;;5076818;28;20392;-76
2022/11/09 01:01:35;;;;;;;6.35;2.40;;;;;;;;;;5085655;28;20066;-77
2022/11/09 01:04:01;;;;;;;6.63;2.60;;;;;;;;;;5098812;28;20044;-78
2022/11/09 01:06:27;;;;;;;13.13;2.35;;;;;;;;;;5098519;28;20036;-77
2022/11/09 01:08:54;;;;;;;5.63;2.22;;;;;;;;;;5098398;28;20035;-76
2022/11/09 01:11:21;;;;;;;9.50;2.22;;;;;;;;;;5098803;28;20036;-77
2022/11/09 01:13:47;;;;;;;10.32;2.50;;;;;;;;;;5095691;28;20043;-78
2022/11/09 01:16:14;;;;;;;8.40;2.97;;;;;;;;;;5099712;28;20028;-78
2022/11/09 01:18:40;;;;;;;6.22;2.55;;;;;;;;;;5098648;28;20017;-78
2022/11/09 01:21:07;;;;;;;4.38;2.03;;;;;;;;;;5095992;28;20271;-77
2022/11/09 01:23:33;;;;;;;6.97;2.90;;;;;;;;;;5098589;28;20032;-76
2022/11/09 01:26:00;;;;;;;9.55;3.20;;;;;;;;;;5098925;28;20020;-78
2022/11/09 01:28:26;;;;;;;6.43;2.60;;;;;;;;;;5095823;22;20045;-72
2022/11/09 01:30:52;;;;;;;6.85;2.53;;;;;;;;;;5054648;28;20175;-73
2022/11/09 01:33:18;;;;;;;7.50;2.90;;;;;;;;;;5036687;28;20319;-75
2022/11/09 01:35:44;;;;;;;7.72;2.42;;;;;;;;;;5054578;28;20060;-74
2022/11/09 01:38:10;;;;;;;9.52;3.38;;;;;;;;;;5054643;28;20075;-74
2022/11/09 01:40:37;;;;;;;8.73;3.38;;;;;;;;;;5036759;28;20025;-74
2022/11/09 01:43:14;;;;;;;12.15;3.15;;;;;;;;;;5037089;28;20531;-76
2022/11/09 01:45:40;;;;;;;8.23;2.70;;;;;;;;;;5054508;28;20434;-74
2022/11/09 01:48:11;;;;;;;6.88;3.08;;;;;;;;;;5053032;28;20032;-73
2022/11/09 01:50:43;;;;;;;9.02;2.78;;;;;;;;;;5054589;28;20039;-75
2022/11/09 01:53:12;;;;;;;8.52;2.85;;;;;;;;;;5054548;28;20105;-72
2022/11/09 01:55:38;;;;;;;11.20;2.80;;;;;;;;;;5054662;28;20029;-73
2022/11/09 01:58:09;;;;;;;6.78;2.67;;;;;;;;;;5055470;28;20029;-74
2022/11/09 02:00:37;;;;;;;12.88;2.63;;;;;;;;;;5056052;28;20021;-74
2022/11/09 02:03:24;;;;;;;9.70;2.75;;;;;;;;;;5037755;28;20020;-74
2022/11/09 02:05:50;;;;;;;14.05;3.20;;;;;;;;;;5054113;28;20051;-73
2022/11/09 02:08:18;;;;;;;8.40;2.85;;;;;;;;;;5056206;28;20029;-74
2022/11/09 02:10:52;;;;;;;10.50;3.15;;;;;;;;;;5059769;28;20067;-74
2022/11/09 02:13:19;;;;;;;6.00;2.72;;;;;;;;;;5055267;28;20413;-75
2022/11/09 02:15:45;;;;;;;8.13;2.80;;;;;;;;;;5036069;28;20033;-73
2022/11/09 02:18:11;;;;;;;9.40;2.83;;;;;;;;;;5054340;28;20104;-74
2022/11/09 02:20:46;;;;;;;7.75;2.58;;;;;;;;;;5054355;28;20052;-73
2022/11/09 02:23:12;;;;;;;9.48;2.92;;;;;;;;;;5054273;28;20077;-74
2022/11/09 02:25:38;;;;;;;8.23;2.60;;;;;;;;;;5053660;28;20432;-72
2022/11/09 02:28:05;;;;;;;7.55;2.85;;;;;;;;;;5053741;28;20033;-74
2022/11/09 02:30:31;;;;;;;9.98;2.97;;;;;;;;;;5053726;28;20032;-74
2022/11/09 02:32:57;;;;;;;6.40;2.50;;;;;;;;;;5053471;28;20040;-74
2022/11/09 02:35:23;;;;;;;7.28;2.35;;;;;;;;;;5053626;28;20092;-73
2022/11/09 02:37:50;;;;;;;11.65;2.90;;;;;;;;;;5054560;28;20025;-72
2022/11/09 02:40:24;;;;;;;5.85;2.38;;;;;;;;;;5056545;28;20052;-72
2022/11/09 02:42:50;;;;;;;6.30;2.60;;;;;;;;;;5053656;28;20486;-73
2022/11/09 02:45:16;;;;;;;7.03;2.33;;;;;;;;;;5053638;28;20040;-74
2022/11/09 02:47:42;;;;;;;8.07;2.50;;;;;;;;;;5055468;28;20397;-74
2022/11/09 02:50:08;;;;;;;7.60;2.25;;;;;;;;;;5054513;28;20408;-73
2022/11/09 02:52:34;;;;;;;10.07;2.70;;;;;;;;;;5062838;28;20033;-75
2022/11/09 02:55:00;;;;;;;12.35;2.90;;;;;;;;;;5053709;28;20028;-72
2022/11/09 02:57:26;;;;;;;10.60;2.28;;;;;;;;;;5053344;28;20021;-74
2022/11/09 02:59:51;;;;;;;5.60;2.10;;;;;;;;;;5052747;28;20021;-73
2022/11/09 03:02:17;;;;;;;8.15;2.03;;;;;;;;;;5053243;28;20032;-73
2022/11/09 03:04:43;;;;;;;7.18;2.13;;;;;;;;;;5054026;28;20127;-73
2022/11/09 03:07:09;;;;;;;7.82;2.25;;;;;;;;;;5035348;28;20112;-73
2022/11/09 03:09:35;;;;;;;8.65;2.70;;;;;;;;;;5053373;28;20083;-74
2022/11/09 03:12:27;;;;;;;5.65;2.05;;;;;;;;;;5053786;28;20105;-73
2022/11/09 03:14:47;;;;;;;5.25;2.28;;;;;;;;;;5052908;28;20033;-74
2022/11/09 03:17:13;;;;;;;6.70;2.50;;;;;;;;;;5052827;28;20155;-74
2022/11/09 03:19:39;;;;;;;11.05;2.65;;;;;;;;;;5053208;28;20025;-74
2022/11/09 03:22:05;;;;;;;9.82;2.63;;;;;;;;;;5052679;28;20025;-74
2022/11/09 03:24:31;;;;;;;6.20;2.28;;;;;;;;;;5052860;28;20075;-73
2022/11/09 03:26:57;;;;;;;5.10;2.20;;;;;;;;;;5053113;28;20477;-73
2022/11/09 03:29:23;;;;;;;7.32;2.40;;;;;;;;;;5055056;28;20037;-73
2022/11/09 03:31:49;;;;;;;6.55;2.30;;;;;;;;;;5057785;28;20043;-73
2022/11/09 03:34:15;;;;;;;8.15;2.40;;;;;;;;;;5057858;28;20060;-73
2022/11/09 03:36:41;;;;;;;5.57;2.35;;;;;;;;;;5043551;28;20021;-74
2022/11/09 03:39:06;;;;;;;6.72;2.60;;;;;;;;;;5054939;28;20071;-74
2022/11/09 03:41:33;;;;;;;6.50;2.38;;;;;;;;;;5053759;28;20028;-72
2022/11/09 03:43:59;;;;;;;8.93;2.40;;;;;;;;;;5053918;28;20040;-74
2022/11/09 03:46:26;;;;;;;8.38;2.50;;;;;;;;;;5053766;28;20048;-74
2022/11/09 03:48:52;;;;;;;7.43;2.58;;;;;;;;;;5054428;28;20092;-75
2022/11/09 03:51:18;;;;;;;7.78;2.40;;;;;;;;;;5052837;28;20118;-74
2022/11/09 03:53:44;;;;;;;9.35;2.50;;;;;;;;;;5053017;28;20079;-74
2022/11/09 03:56:10;;;;;;;7.85;2.28;;;;;;;;;;5057825;28;20039;-76
2022/11/09 03:58:36;;;;;;;6.93;2.08;;;;;;;;;;5056793;28;20101;-74
2022/11/09 04:01:02;;;;;;;6.95;2.60;;;;;;;;;;5054773;28;20025;-76
2022/11/09 04:03:27;;;;;;;9.25;2.50;;;;;;;;;;5056319;28;20029;-75
2022/11/09 04:05:53;;;;;;;10.65;2.40;;;;;;;;;;5055092;28;20033;-75
2022/11/09 04:08:19;;;;;;;7.65;2.00;;;;;;;;;;5035772;28;20021;-73
2022/11/09 04:10:45;;;;;;;8.18;2.40;;;;;;;;;;5053098;28;20020;-74
2022/11/09 04:13:11;;;;;;;4.50;2.10;;;;;;;;;;5053130;28;20029;-75
2022/11/09 04:15:37;;;;;;;6.95;2.30;;;;;;;;;;5035728;28;20028;-73
2022/11/09 04:18:03;;;;;;;6.10;2.75;;;;;;;;;;5054977;28;20029;-73
2022/11/09 04:20:30;;;;;;;9.10;2.70;;;;;;;;;;5054366;28;20100;-74
2022/11/09 04:22:57;;;;;;;7.22;2.35;;;;;;;;;;5034853;28;20025;-75
2022/11/09 04:25:23;;;;;;;7.18;2.55;;;;;;;;;;5034509;28;20029;-73
2022/11/09 04:27:53;;;;;;;6.53;2.83;;;;;;;;;;5034514;28;20064;-74
2022/11/09 04:30:19;;;;;;;5.30;2.15;;;;;;;;;;5052227;28;20035;-73
2022/11/09 04:32:45;;;;;;;9.68;2.38;;;;;;;;;;5052230;28;20029;-73
2022/11/09 04:35:11;;;;;;;8.25;2.78;;;;;;;;;;5052045;28;20025;-74
2022/11/09 04:37:37;;;;;;;10.55;2.40;;;;;;;;;;5033922;28;20032;-72
2022/11/09 04:40:03;;;;;;;11.35;2.80;;;;;;;;;;5033996;28;20116;-75
2022/11/09 04:42:29;;;;;;;10.35;2.42;;;;;;;;;;5052140;28;20033;-75
2022/11/09 04:44:55;;;;;;;8.20;2.78;;;;;;;;;;5034199;28;20036;-74
2022/11/09 04:47:21;;;;;;;6.63;2.55;;;;;;;;;;5052113;28;20047;-73
2022/11/09 04:49:47;;;;;;;7.85;2.20;;;;;;;;;;5035831;28;20111;-74
2022/11/09 04:52:13;;;;;;;7.30;2.13;;;;;;;;;;5054980;28;20381;-72
2022/11/09 04:54:38;;;;;;;8.70;1.92;;;;;;;;;;5051977;28;20529;-74
2022/11/09 04:57:04;;;;;;;9.38;2.67;;;;;;;;;;5051724;28;20029;-74
2022/11/09 04:59:30;;;;;;;6.07;2.47;;;;;;;;;;5053808;28;20366;-73
2022/11/09 05:01:56;;;;;;;9.98;2.30;;;;;;;;;;5053661;28;20025;-72
2022/11/09 05:04:22;;;;;;;6.13;2.30;;;;;;;;;;5053216;28;20029;-75
2022/11/09 05:06:48;;;;;;;5.18;2.17;;;;;;;;;;5054202;28;20109;-74
2022/11/09 05:09:14;;;;;;;8.55;2.75;;;;;;;;;;5058229;28;20036;-73
2022/11/09 05:11:40;;;;;;;7.05;2.50;;;;;;;;;;5054651;28;20120;-74
2022/11/09 05:14:06;;;;;;;10.77;2.60;;;;;;;;;;5055195;28;20473;-73
2022/11/09 05:16:32;;;;;;;6.57;1.90;;;;;;;;;;5051226;28;20021;-73
2022/11/09 05:18:58;;;;;;;7.53;2.22;;;;;;;;;;5051575;28;20461;-73
2022/11/09 05:21:24;;;;;;;7.40;3.58;;;;;;;;;;5052208;28;20069;-73
2022/11/09 05:23:59;;;;;;;7.68;2.63;;;;;;;;;;5055120;28;20025;-74
2022/11/09 05:26:26;;;;;;;13.73;2.38;;;;;;;;;;5055484;28;20056;-74
2022/11/09 05:28:52;;;;;;;8.50;2.65;;;;;;;;;;5055659;28;20032;-74
2022/11/09 05:31:18;;;;;;;5.35;2.58;;;;;;;;;;5055053;28;20017;-75
2022/11/09 05:33:44;;;;;;;8.95;2.47;;;;;;;;;;5055466;28;20033;-73
2022/11/09 05:36:10;;;;;;;9.43;2.72;;;;;;;;;;5037134;28;20025;-75
2022/11/09 05:38:36;;;;;;;6.82;2.30;;;;;;;;;;5055598;28;20031;-75
2022/11/09 05:41:01;;;;;;;8.38;2.63;;;;;;;;;;5055606;28;20067;-77
2022/11/09 05:43:27;;;;;;;12.57;2.38;;;;;;;;;;5055245;28;20394;-72
2022/11/09 05:45:53;;;;;;;8.65;2.22;;;;;;;;;;5055261;28;20413;-76
2022/11/09 05:48:19;;;;;;;12.65;2.30;;;;;;;;;;5056061;28;20386;-73
2022/11/09 05:50:45;;;;;;;10.05;1.98;;;;;;;;;;5063458;28;20025;-74
2022/11/09 05:53:12;;;;;;;9.68;2.60;;;;;;;;;;5057556;28;20033;-74
2022/11/09 05:55:38;;;;;;;6.00;2.30;;;;;;;;;;5054785;28;20025;-74
2022/11/09 05:58:04;;;;;;;7.32;2.10;;;;;;;;;;5055024;28;20448;-76
2022/11/09 06:00:30;;;;;;;15.20;2.65;;;;;;;;;;5055944;28;20025;-74
2022/11/09 06:03:03;;;;;;;8.90;2.72;;;;;;;;;;5063296;28;20029;-74
2022/11/09 06:05:29;;;;;;;6.25;2.22;;;;;;;;;;5056560;28;20029;-73
2022/11/09 06:07:55;;;;;;;7.50;2.25;;;;;;;;;;5056011;28;20083;-74
2022/11/09 06:10:21;;;;;;;12.43;2.25;;;;;;;;;;5055815;28;20025;-74
2022/11/09 06:12:50;;;;;;;15.82;2.35;;;;;;;;;;5055251;28;20068;-73
2022/11/09 06:15:16;;;;;;;6.43;2.60;;;;;;;;;;5054449;28;20029;-72
2022/11/09 06:17:42;;;;;;;8.52;2.60;;;;;;;;;;5037054;28;20036;-74
2022/11/09 06:20:08;;;;;;;8.07;2.35;;;;;;;;;;5038312;28;20025;-74
2022/11/09 06:22:34;;;;;;;8.60;3.30;;;;;;;;;;5055590;28;20075;-75
2022/11/09 06:25:00;;;;;;;10.93;2.40;;;;;;;;;;5056512;28;20101;-73
2022/11/09 06:27:26;;;;;;;10.48;2.60;;;;;;;;;;5057094;28;20029;-73
2022/11/09 06:29:52;;;;;;;13.77;2.50;;;;;;;;;;5039394;28;20041;-73
2022/11/09 06:32:18;;;;;;;8.55;3.28;;;;;;;;;;5037775;28;20466;-74
2022/11/09 06:34:47;;;;;;;8.90;2.67;;;;;;;;;;5053703;28;20025;-75
2022/11/09 06:37:13;;;;;;;7.95;2.20;;;;;;;;;;5054650;28;20055;-73
2022/11/09 06:39:39;;;;;;;6.60;2.22;;;;;;;;;;5056182;28;20074;-74
2022/11/09 06:42:04;;;;;;;5.45;2.42;;;;;;;;;;5062755;28;20075;-75
2022/11/09 06:44:30;;;;;;;7.70;2.60;;;;;;;;;;5063530;28;20039;-74
2022/11/09 06:46:56;;;;;;;6.25;2.60;;;;;;;;;;5056569;28;20025;-74
2022/11/09 06:49:22;;;;;;;8.45;2.60;;;;;;;;;;5054100;28;20494;-75
2022/11/09 06:51:48;;;;;;;10.18;2.40;;;;;;;;;;5054482;28;20059;-74
2022/11/09 06:54:14;;;;;;;6.43;2.47;;;;;;;;;;5054315;28;20120;-74
2022/11/09 06:56:40;;;;;;;7.40;2.33;;;;;;;;;;5054617;28;20056;-73
2022/11/09 06:59:07;;;;;;;7.57;2.30;;;;;;;;;;5056266;28;20441;-74
2022/11/09 07:01:33;;;;;;;6.32;2.60;;;;;;;;;;5055925;28;20048;-74
2022/11/09 07:03:59;;;;;;;9.82;2.67;;;;;;;;;;5059085;28;20021;-74
2022/11/09 07:06:25;;;;;;;7.47;3.30;;;;;;;;;;5058973;28;20098;-73
2022/11/09 07:08:54;;;;;;;6.80;2.20;;;;;;;;;;5060254;28;20048;-73
2022/11/09 07:11:20;;;;;;;8.77;3.00;;;;;;;;;;5055957;28;20025;-73
2022/11/09 07:13:48;;;;;;;9.40;2.47;;;;;;;;;;5037954;28;20060;-75
2022/11/09 07:16:16;;;;;;;9.75;2.72;;;;;;;;;;5057408;28;20025;-73
2022/11/09 07:18:42;;;;;;;8.88;2.60;;;;;;;;;;5055695;28;20016;-73
2022/11/09 07:21:08;;;;;;;11.18;2.20;;;;;;;;;;5054522;28;20017;-75
2022/11/09 07:23:34;;;;;;;8.60;2.78;;;;;;;;;;5054806;28;20082;-75
2022/11/09 07:26:00;;;;;;;11.65;2.40;;;;;;;;;;5054873;28;20021;-74
2022/11/09 07:28:26;;;;;;;6.55;2.50;;;;;;;;;;5057048;28;20041;-75
2022/11/09 07:30:52;;;;;;;10.43;2.50;;;;;;;;;;5054401;28;20040;-75
2022/11/09 07:33:19;;;;;;;9.25;2.55;;;;;;;;;;5054507;28;20031;-74
2022/11/09 07:35:45;;;;;;;10.77;2.67;;;;;;;;;;5054229;28;20112;-75
2022/11/09 07:38:11;;;;;;;8.43;2.67;;;;;;;;;;5056138;28;20020;-76
2022/11/09 07:40:38;;;;;;;9.35;2.70;;;;;;;;;;5056461;28;20021;-75
2022/11/09 07:43:04;;;;;;;6.85;2.33;;;;;;;;;;5054311;28;20056;-73
2022/11/09 07:45:31;;;;;;;13.57;3.17;;;;;;;;;;5059316;28;20056;-74
2022/11/09 07:47:58;;;;;;;9.43;2.72;;;;;;;;;;5057270;28;20036;-75
2022/11/09 07:50:24;;;;;;;9.93;3.10;;;;;;;;;;5054715;28;20033;-74
2022/11/09 07:52:50;;;;;;;6.50;2.42;;;;;;;;;;5053541;28;20474;-74
2022/11/09 07:55:16;;;;;;;11.38;2.33;;;;;;;;;;5053576;28;20029;-73
2022/11/09 07:57:43;;;;;;;11.38;2.47;;;;;;;;;;5035117;28;20044;-76
2022/11/09 08:00:09;;;;;;;9.23;2.30;;;;;;;;;;5054172;28;20017;-74
2022/11/09 08:02:35;;;;;;;6.35;2.13;;;;;;;;;;5055091;28;20421;-75
2022/11/09 08:05:02;;;;;;;5.55;2.35;;;;;;;;;;5035803;28;20402;-75
2022/11/09 08:07:28;;;;;;;10.38;2.45;;;;;;;;;;5035096;28;20118;-75
2022/11/09 08:09:54;;;;;;;9.68;2.70;;;;;;;;;;5055542;28;20023;-74
2022/11/09 08:12:20;;;;;;;9.02;2.60;;;;;;;;;;5060863;28;20024;-74
2022/11/09 08:14:46;;;;;;;10.55;2.90;;;;;;;;;;5065144;28;20025;-74
2022/11/09 08:17:12;;;;;;;12.40;2.38;;;;;;;;;;5041301;28;20070;-76
2022/11/09 08:19:38;;;;;;;7.65;2.40;;;;;;;;;;5054293;28;20480;-75
2022/11/09 08:22:04;;;;;;;12.30;2.85;;;;;;;;;;5037236;28;20049;-75
2022/11/09 08:24:30;;;;;;;6.97;2.05;;;;;;;;;;5054070;28;20108;-75
2022/11/09 08:26:56;;;;;;;11.57;2.38;;;;;;;;;;5036349;28;20025;-75
2022/11/09 08:29:22;;;;;;;15.70;2.90;;;;;;;;;;5036448;28;20048;-74
2022/11/09 08:31:52;;;;;;;8.70;2.35;;;;;;;;;;5052552;28;20025;-76
2022/11/09 08:34:18;;;;;;;5.82;2.30;;;;;;;;;;5038550;28;20082;-75
2022/11/09 08:36:44;;;;;;;11.30;2.25;;;;;;;;;;5062873;28;20017;-75
2022/11/09 08:39:10;;;;;;;8.50;2.15;;;;;;;;;;5062287;28;20022;-74
2022/11/09 08:41:36;;;;;;;8.65;2.38;;;;;;;;;;5063383;28;20028;-74
2022/11/09 08:44:02;;;;;;;8.75;2.28;;;;;;;;;;5065025;28;20116;-74
2022/11/09 08:46:28;;;;;;;9.38;1.92;;;;;;;;;;5063279;28;20022;-74
2022/11/09 08:48:54;;;;;;;8.73;2.45;;;;;;;;;;5057859;28;20056;-74
2022/11/09 08:51:20;;;;;;;12.82;2.80;;;;;;;;;;5061551;28;20029;-74
2022/11/09 08:53:46;;;;;;;11.15;2.60;;;;;;;;;;5058569;28;20036;-74
2022/11/09 08:56:17;;;;;;;10.18;2.38;;;;;;;;;;5058566;28;20021;-74
2022/11/09 08:58:43;;;;;;;9.63;2.42;;;;;;;;;;5059596;28;20098;-75
2022/11/09 09:01:09;;;;;;;7.60;2.00;;;;;;;;;;5039798;28;20079;-74
2022/11/09 09:03:35;;;;;;;12.23;2.35;;;;;;;;;;5058001;28;20089;-74
2022/11/09 09:06:05;;;;;;;15.27;2.78;;;;;;;;;;5057495;28;20079;-76
2022/11/09 09:08:31;;;;;;;10.88;2.58;;;;;;;;;;5057812;28;20021;-75
2022/11/09 09:10:57;;;;;;;12.13;2.60;;;;;;;;;;5060282;28;20107;-75
2022/11/09 09:13:23;;;;;;;9.18;2.50;;;;;;;;;;5060799;28;20025;-77
2022/11/09 09:15:49;;;;;;;8.40;2.20;;;;;;;;;;5062140;28;20025;-75
2022/11/09 09:18:15;;;;;;;7.55;2.17;;;;;;;;;;5056673;28;20028;-74
2022/11/09 09:20:41;;;;;;;7.72;2.10;;;;;;;;;;5056633;28;20481;-75
2022/11/09 09:23:07;;;;;;;10.80;2.25;;;;;;;;;;5058193;28;20032;-74
2022/11/09 09:25:33;;;;;;;15.10;2.42;;;;;;;;;;5056212;28;20482;-74
2022/11/09 09:27:59;;;;;;;11.95;2.55;;;;;;;;;;5056669;28;20041;-74
2022/11/09 09:30:25;;;;;;;12.60;2.55;;;;;;;;;;5055797;28;20486;-73
2022/11/09 09:32:51;;;;;;;13.85;2.47;;;;;;;;;;5038309;28;20446;-74
2022/11/09 09:35:17;;;;;;;11.85;2.28;;;;;;;;;;5055922;28;20029;-72
2022/11/09 09:37:43;;;;;;;14.68;2.40;;;;;;;;;;5039521;28;20123;-74
2022/11/09 09:40:19;;;;;;;15.10;2.25;;;;;;;;;;5040001;28;20043;-76
2022/11/09 09:42:46;;;;;;;12.65;2.65;;;;;;;;;;5057696;28;20481;-73
2022/11/09 09:45:15;;;;;;;14.90;2.85;;;;;;;;;;5057456;28;20035;-75
2022/11/09 09:47:46;;;;;;;14.07;2.92;;;;;;;;;;5057198;28;20107;-73
2022/11/09 09:50:20;;;;;;;10.23;2.58;;;;;;;;;;5056194;28;20029;-75
2022/11/09 09:53:01;;;;;;;13.32;2.47;;;;;;;;;;5040915;28;20401;-75
2022/11/09 09:55:35;;;;;;;12.43;2.70;;;;;;;;;;5056197;28;20057;-75
2022/11/09 09:58:06;;;;;;;11.23;2.50;;;;;;;;;;5055498;28;20080;-74
2022/11/09 10:00:32;;;;;;;14.57;2.53;;;;;;;;;;5055429;28;20683;-75
2022/11/09 10:02:59;;;;;;;11.60;2.50;;;;;;;;;;5055532;28;20382;-75
2022/11/09 10:05:28;;;;;;;13.38;3.30;;;;;;;;;;5060272;28;20500;-76
2022/11/09 10:07:57;;;;;;;16.52;3.17;;;;;;;;;;5054058;28;20036;-74
2022/11/09 10:10:23;;;;;;;15.07;2.55;;;;;;;;;;5054463;28;20538;-74
2022/11/09 10:13:08;;;;;;;15.32;3.20;;;;;;;;;;5054919;28;20314;-76
2022/11/09 10:15:55;;;;;;;14.98;3.03;;;;;;;;;;5055123;28;20481;-74
2022/11/09 10:18:36;;;;;;;13.75;2.85;;;;;;;;;;5064304;28;20028;-75
2022/11/09 10:21:20;;;;;;;13.38;2.75;;;;;;;;;;5059233;28;20028;-74
2022/11/09 10:23:54;;;;;;;15.00;2.58;;;;;;;;;;5056115;28;20037;-74
2022/11/09 10:26:27;;;;;;;12.32;2.42;;;;;;;;;;5055912;28;20044;-74
2022/11/09 10:28:55;;;;;;;11.23;2.75;;;;;;;;;;5054663;28;20082;-76
2022/11/09 10:31:22;;;;;;;13.98;2.67;;;;;;;;;;5055317;28;20078;-76
2022/11/09 10:33:55;;;;;;;17.13;3.22;;;;;;;;;;5054593;28;20025;-73
2022/11/09 10:36:22;;;;;;;15.15;2.55;;;;;;;;;;5054609;28;20425;-74
2022/11/09 10:38:49;;;;;;;19.45;3.00;;;;;;;;;;5054182;28;20017;-75
2022/11/09 10:41:24;;;;;;;11.55;2.50;;;;;;;;;;5055292;28;20056;-75
2022/11/09 10:43:50;;;;;;;14.18;2.85;;;;;;;;;;5055177;28;20083;-75
2022/11/09 10:46:16;;;;;;;18.80;2.85;;;;;;;;;;5054711;28;20029;-74
2022/11/09 10:48:42;;;;;;;22.05;2.85;;;;;;;;;;5054130;28;20029;-75
2022/11/09 10:51:27;;;;;;;18.17;3.28;;;;;;;;;;5054343;28;20159;-75
2022/11/09 10:54:13;;;;;;;10.48;2.53;;;;;;;;;;5054165;28;20033;-75
2022/11/09 10:56:44;;;;;;;17.48;2.97;;;;;;;;;;5054331;28;20108;-74
2022/11/09 10:59:29;;;;;;;13.90;2.70;;;;;;;;;;5055242;28;20100;-75
2022/11/09 11:01:55;;;;;;;15.45;2.70;;;;;;;;;;5056203;28;20537;-74
2022/11/09 11:04:23;;;;;;;13.30;2.40;;;;;;;;;;5053850;28;20063;-74
2022/11/09 11:06:49;;;;;;;16.92;2.67;;;;;;;;;;5053798;28;20096;-76
2022/11/09 11:09:16;;;;;;;16.48;2.53;;;;;;;;;;5059420;28;20067;-73
2022/11/09 11:11:42;;;;;;;11.52;2.30;;;;;;;;;;5072035;28;20025;-73
2022/11/09 11:14:08;;;;;;;19.70;2.90;;;;;;;;;;5067688;28;20056;-76
2022/11/09 11:16:35;;;;;;;16.10;3.13;;;;;;;;;;5057405;28;20025;-74
2022/11/09 11:19:01;;;;;;;15.32;2.92;;;;;;;;;;5062125;28;20374;-75
2022/11/09 11:21:27;;;;;;;15.05;3.40;;;;;;;;;;5062640;28;20033;-75
2022/11/09 11:24:12;;;;;;;18.08;2.80;;;;;;;;;;5035704;28;20044;-74
2022/11/09 11:26:50;;;;;;;13.20;2.95;;;;;;;;;;5035845;28;20057;-76
2022/11/09 11:29:22;;;;;;;13.13;2.83;;;;;;;;;;5053598;28;20032;-74
2022/11/09 11:31:48;;;;;;;12.70;2.38;;;;;;;;;;5053811;28;20048;-74
2022/11/09 11:34:14;;;;;;;10.65;2.25;;;;;;;;;;5053197;28;20109;-74
2022/11/09 11:36:55;;;;;;;12.77;3.17;;;;;;;;;;5054542;28;20484;-75
2022/11/09 11:39:33;;;;;;;13.02;3.15;;;;;;;;;;5037478;28;20343;-76
2022/11/09 11:41:59;;;;;;;15.68;2.97;;;;;;;;;;5054509;28;20052;-76
2022/11/09 11:44:31;;;;;;;11.82;2.70;;;;;;;;;;5054654;28;20478;-76
2022/11/09 11:47:00;;;;;;;11.15;2.40;;;;;;;;;;5053586;28;20099;-76
2022/11/09 11:49:34;;;;;;;12.98;2.80;;;;;;;;;;5054466;28;20436;-76
2022/11/09 11:52:06;;;;;;;9.90;1.95;;;;;;;;;;5054108;28;20095;-74
2022/11/09 11:54:46;;;;;;;12.30;2.53;;;;;;;;;;5053726;28;20406;-75
2022/11/09 11:57:25;;;;;;;13.25;2.63;;;;;;;;;;5058026;28;20028;-74
2022/11/09 11:59:57;;;;;;;14.75;2.80;;;;;;;;;;5055003;28;20409;-75
2022/11/09 12:02:33;;;;;;;14.68;3.22;;;;;;;;;;5054013;28;20051;-76
2022/11/09 12:05:08;;;;;;;13.15;3.47;;;;;;;;;;5053334;28;20474;-76
2022/11/09 12:07:34;;;;;;;14.88;2.72;;;;;;;;;;5053471;28;20036;-74
2022/11/09 12:10:21;;;;;;;13.32;2.78;;;;;;;;;;5036148;28;20170;-76
2022/11/09 12:12:56;;;;;;;12.60;2.70;;;;;;;;;;5057566;28;20363;-74
2022/11/09 12:15:27;;;;;;;7.88;1.90;;;;;;;;;;5056193;28;20089;-74
2022/11/09 12:18:02;;;;;;;16.05;3.33;;;;;;;;;;5055390;28;20094;-74
2022/11/09 12:20:28;;;;;;;;;;;;;;;;;;5054455;28;20108;-75
2022/11/09 12:23:00;;;;;;;17.08;2.90;;;;;;;;;;5055388;28;19951;-74
2022/11/09 12:25:29;;;;;;;13.88;2.50;;;;;;;;;;5053910;28;20119;-75
2022/11/09 12:28:02;;;;;;;10.73;2.63;;;;;;;;;;5053658;28;20049;-73
2022/11/09 12:30:35;;;;;;;11.23;2.55;;;;;;;;;;5053079;28;20029;-75
2022/11/09 12:33:08;;;;;;;10.90;2.83;;;;;;;;;;5053181;28;20086;-74
2022/11/09 12:35:40;;;;;;;15.15;2.60;;;;;;;;;;5053540;28;20386;-75
2022/11/09 12:38:24;;;;;;;17.23;2.60;;;;;;;;;;5053808;28;20049;-76
2022/11/09 12:40:53;;;;;;;18.52;2.83;;;;;;;;;;5040195;28;20024;-73
2022/11/09 12:43:23;;;;;;;13.45;2.80;;;;;;;;;;5058289;28;20046;-71
2022/11/09 12:45:51;;;;;;;15.73;2.60;;;;;;;;;;5058224;28;20033;-74
2022/11/09 12:48:23;;;;;;;13.40;2.30;;;;;;;;;;5056420;28;20040;-76
2022/11/09 12:50:49;;;;;;;13.15;2.67;;;;;;;;;;5060920;28;20025;-74
2022/11/09 12:53:16;;;;;;;16.15;2.45;;;;;;;;;;5057456;28;20087;-75
2022/11/09 12:56:00;;;;;;;13.98;2.60;;;;;;;;;;5054610;28;20082;-74
2022/11/09 12:58:26;;;;;;;;;;;;;;;;;;5058021;28;20057;-76
2022/11/09 13:00:54;;;;;;;11.52;2.40;;;;;;;;;;5060312;28;19905;-73
2022/11/09 13:03:25;;;;;;;11.23;2.30;;;;;;;;;;5053199;28;20099;-75
2022/11/09 13:06:08;;;;;;;10.20;2.45;;;;;;;;;;5052633;28;20029;-74
2022/11/09 13:08:35;;;;;;;10.35;2.28;;;;;;;;;;5052500;28;20086;-76
2022/11/09 13:11:30;;;;;;;10.85;2.50;;;;;;;;;;5053566;28;20440;-76
2022/11/09 13:14:15;;;;;;;8.05;2.40;;;;;;;;;;5035435;28;20068;-72
2022/11/09 13:16:41;;;;;;;15.07;2.67;;;;;;;;;;5052066;28;20087;-75
2022/11/09 13:19:08;;;;;;;12.00;2.55;;;;;;;;;;5052633;28;20436;-75
2022/11/09 13:21:35;;;;;;;11.30;2.40;;;;;;;;;;5053161;28;20033;-75
2022/11/09 13:24:21;;;;;;;9.27;2.63;;;;;;;;;;5053840;28;20435;-76
2022/11/09 13:26:47;;;;;;;15.55;2.55;;;;;;;;;;5055387;28;20096;-75
2022/11/09 13:29:22;;;;;;;11.95;2.25;;;;;;;;;;5094193;22;20114;-78
2022/11/09 13:32:00;;;;;;;12.88;2.80;;;;;;;;;;5080179;28;20031;-78
2022/11/09 13:34:45;;;;;;;11.88;2.35;;;;;;;;;;5088144;28;20020;-77
2022/11/09 13:37:30;;;;;;;12.05;2.58;;;;;;;;;;5094065;28;20051;-76
2022/11/09 13:39:56;;;;;;;;;;;;;;;;;;5094904;28;20013;-77
2022/11/09 13:42:30;;;;;;;7.43;2.00;;;;;;;;;;5094910;28;19908;-77
2022/11/09 13:45:15;;;;;;;11.85;2.85;;;;;;;;;;5094431;28;20028;-78
2022/11/09 13:47:41;;;;;;;;;;;;;;;;;;5083416;28;20032;-77
2022/11/09 13:50:23;;;;;;;14.73;2.40;;;;;;;;;;5081336;28;19904;-77
2022/11/09 13:52:54;;;;;;;12.68;3.03;;;;;;;;;;5082313;28;20118;-79
2022/11/09 13:55:24;;;;;;;11.93;2.20;;;;;;;;;;5081069;28;20017;-78
2022/11/09 13:57:52;;;;;;;14.65;4.05;;;;;;;;;;5081773;28;20032;-78
2022/11/09 14:00:22;;;;;;;12.73;3.63;;;;;;;;;;5082541;28;20025;-77
2022/11/09 14:02:52;;;;;;;18.30;3.75;;;;;;;;;;5082563;28;20024;-77
2022/11/09 14:05:24;;;;;;;11.43;2.60;;;;;;;;;;5092561;28;20024;-76
2022/11/09 14:07:53;;;;;;;11.68;2.40;;;;;;;;;;5082717;28;20032;-77
2022/11/09 14:10:19;;;;;;;13.10;2.58;;;;;;;;;;5083339;28;20028;-77
2022/11/09 14:13:11;;;;;;;10.25;2.40;;;;;;;;;;5090144;28;20021;-77
2022/11/09 14:15:51;;;;;;;16.30;3.05;;;;;;;;;;5088106;28;20024;-77
2022/11/09 14:18:20;;;;;;;13.88;2.55;;;;;;;;;;5089712;28;20512;-77
2022/11/09 14:20:46;;;;;;;11.13;2.00;;;;;;;;;;5084731;28;20024;-78
2022/11/09 14:23:31;;;;;;;13.00;2.70;;;;;;;;;;5082656;28;20037;-78
2022/11/09 14:25:57;;;;;;;14.43;2.40;;;;;;;;;;5086484;28;20039;-76
2022/11/09 14:28:27;;;;;;;10.82;2.15;;;;;;;;;;5097698;28;20104;-77
2022/11/09 14:30:54;;;;;;;10.95;2.33;;;;;;;;;;5097693;28;20016;-77
2022/11/09 14:33:22;;;;;;;11.63;2.65;;;;;;;;;;5096196;28;20032;-76
2022/11/09 14:35:48;;;;;;;13.63;2.30;;;;;;;;;;5096974;28;20031;-76
2022/11/09 14:38:21;;;;;;;12.15;2.63;;;;;;;;;;5097452;28;20020;-76
2022/11/09 14:40:48;;;;;;;11.18;2.55;;;;;;;;;;5096645;28;20112;-76
2022/11/09 14:43:17;;;;;;;13.48;3.35;;;;;;;;;;5096681;28;20047;-76
2022/11/09 14:45:47;;;;;;;14.48;3.30;;;;;;;;;;5095466;28;20025;-76